Pointe-Calumet, Canada
Current Conditions -  °F | °C
As of 6:00 AM on Sunday 23 Nov 2014 (Local Time) from CYUL Reporting Station
Haze Haze  
Wind Chill: 32°   Ceiling: 3500
Heat Index: 37°   Visibility: 4mi
Dew Point: 37°   Wind: 7mph
Humidity: 100%   Direction: 240°WSW
Pressure: 29.98"   Gusts: NA
Location:  45.5°N, 73.97°W
Report Text: CYUL 231100Z 24006KT 4SM BR FEW004 SCT010 OVC035 03/03 A2998 RMK SF2SF2SC4 SLP152
Loading
Personal Weather Stations






























Interactive Weather Map New forecast layout! Learn more

10-Day Weather Forecast

Advertisements
Track Severe Weather on mobile